sensor_id;sensor_type;location;lat;lon;timestamp;P1;durP1;ratioP1;P2;durP2;ratioP2
35887;SDS011;21990;42.540;23.496;2023-09-19T00:02:16;12.48;;;5.78;;
35887;SDS011;21990;42.540;23.496;2023-09-19T00:04:42;8.40;;;5.28;;
35887;SDS011;21990;42.540;23.496;2023-09-19T00:07:08;18.92;;;5.13;;
35887;SDS011;21990;42.540;23.496;2023-09-19T00:09:36;9.55;;;4.90;;
35887;SDS011;21990;42.540;23.496;2023-09-19T00:12:06;10.15;;;4.75;;
35887;SDS011;21990;42.540;23.496;2023-09-19T00:14:32;8.77;;;5.03;;
35887;SDS011;21990;42.540;23.496;2023-09-19T00:17:03;10.48;;;5.45;;
35887;SDS011;21990;42.540;23.496;2023-09-19T00:19:36;15.90;;;5.28;;
35887;SDS011;21990;42.540;23.496;2023-09-19T00:22:08;8.50;;;5.77;;
35887;SDS011;21990;42.540;23.496;2023-09-19T00:24:33;12.27;;;4.78;;
35887;SDS011;21990;42.540;23.496;2023-09-19T00:26:59;13.82;;;5.20;;
35887;SDS011;21990;42.540;23.496;2023-09-19T00:29:25;7.65;;;5.03;;
35887;SDS011;21990;42.540;23.496;2023-09-19T00:31:54;12.93;;;5.57;;
35887;SDS011;21990;42.540;23.496;2023-09-19T00:34:21;10.77;;;5.25;;
35887;SDS011;21990;42.540;23.496;2023-09-19T00:36:47;9.13;;;5.05;;
35887;SDS011;21990;42.540;23.496;2023-09-19T00:39:12;12.95;;;5.25;;
35887;SDS011;21990;42.540;23.496;2023-09-19T00:41:38;9.52;;;4.78;;
35887;SDS011;21990;42.540;23.496;2023-09-19T00:44:04;17.63;;;5.63;;
35887;SDS011;21990;42.540;23.496;2023-09-19T00:46:30;10.55;;;4.88;;
35887;SDS011;21990;42.540;23.496;2023-09-19T00:48:57;12.13;;;4.63;;
35887;SDS011;21990;42.540;23.496;2023-09-19T00:51:24;9.52;;;5.05;;
35887;SDS011;21990;42.540;23.496;2023-09-19T00:53:52;11.07;;;5.03;;
35887;SDS011;21990;42.540;23.496;2023-09-19T00:56:19;7.70;;;4.90;;
35887;SDS011;21990;42.540;23.496;2023-09-19T00:58:45;7.80;;;5.50;;
35887;SDS011;21990;42.540;23.496;2023-09-19T01:01:14;9.18;;;5.10;;
35887;SDS011;21990;42.540;23.496;2023-09-19T01:03:40;8.80;;;4.80;;
35887;SDS011;21990;42.540;23.496;2023-09-19T01:06:07;8.18;;;4.65;;
35887;SDS011;21990;42.540;23.496;2023-09-19T01:08:36;8.25;;;5.00;;
35887;SDS011;21990;42.540;23.496;2023-09-19T01:11:08;11.27;;;4.85;;
35887;SDS011;21990;42.540;23.496;2023-09-19T01:16:53;8.20;;;5.20;;
35887;SDS011;21990;42.540;23.496;2023-09-19T01:31:09;16.80;;;5.40;;
35887;SDS011;21990;42.540;23.496;2023-09-19T01:36:38;15.60;;;5.22;;
35887;SDS011;21990;42.540;23.496;2023-09-19T01:39:10;7.13;;;4.80;;
35887;SDS011;21990;42.540;23.496;2023-09-19T01:44:03;11.73;;;4.85;;
35887;SDS011;21990;42.540;23.496;2023-09-19T01:46:35;9.40;;;4.65;;
35887;SDS011;21990;42.540;23.496;2023-09-19T01:51:53;16.20;;;4.97;;
35887;SDS011;21990;42.540;23.496;2023-09-19T01:54:25;13.63;;;5.13;;
35887;SDS011;21990;42.540;23.496;2023-09-19T01:57:04;10.20;;;4.63;;
35887;SDS011;21990;42.540;23.496;2023-09-19T02:00:10;12.20;;;5.18;;
35887;SDS011;21990;42.540;23.496;2023-09-19T02:02:42;9.65;;;4.70;;
35887;SDS011;21990;42.540;23.496;2023-09-19T02:05:12;9.53;;;4.97;;
35887;SDS011;21990;42.540;23.496;2023-09-19T02:07:38;7.95;;;4.72;;
35887;SDS011;21990;42.540;23.496;2023-09-19T02:10:04;8.43;;;4.63;;
35887;SDS011;21990;42.540;23.496;2023-09-19T02:12:31;19.13;;;4.80;;
35887;SDS011;21990;42.540;23.496;2023-09-19T02:14:58;13.45;;;5.20;;
35887;SDS011;21990;42.540;23.496;2023-09-19T02:17:24;15.85;;;4.93;;
35887;SDS011;21990;42.540;23.496;2023-09-19T02:19:53;13.85;;;5.05;;
35887;SDS011;21990;42.540;23.496;2023-09-19T02:22:20;9.20;;;4.90;;
35887;SDS011;21990;42.540;23.496;2023-09-19T02:24:50;8.15;;;4.55;;
35887;SDS011;21990;42.540;23.496;2023-09-19T02:27:16;12.45;;;5.22;;
35887;SDS011;21990;42.540;23.496;2023-09-19T02:29:42;6.32;;;4.80;;
35887;SDS011;21990;42.540;23.496;2023-09-19T02:32:08;8.70;;;4.57;;
35887;SDS011;21990;42.540;23.496;2023-09-19T02:34:37;13.73;;;4.47;;
35887;SDS011;21990;42.540;23.496;2023-09-19T02:37:07;6.60;;;4.68;;
35887;SDS011;21990;42.540;23.496;2023-09-19T02:39:36;6.63;;;4.55;;
35887;SDS011;21990;42.540;23.496;2023-09-19T02:42:01;15.85;;;4.85;;
35887;SDS011;21990;42.540;23.496;2023-09-19T02:44:29;18.25;;;4.95;;
35887;SDS011;21990;42.540;23.496;2023-09-19T02:46:55;8.55;;;4.70;;
35887;SDS011;21990;42.540;23.496;2023-09-19T02:49:22;7.25;;;4.85;;
35887;SDS011;21990;42.540;23.496;2023-09-19T02:51:48;7.43;;;4.95;;
35887;SDS011;21990;42.540;23.496;2023-09-19T02:54:14;10.65;;;4.47;;
35887;SDS011;21990;42.540;23.496;2023-09-19T02:56:41;13.00;;;4.65;;
35887;SDS011;21990;42.540;23.496;2023-09-19T02:59:06;7.70;;;5.05;;
35887;SDS011;21990;42.540;23.496;2023-09-19T03:01:32;9.57;;;4.85;;
35887;SDS011;21990;42.540;23.496;2023-09-19T03:03:59;8.50;;;4.90;;
35887;SDS011;21990;42.540;23.496;2023-09-19T03:06:24;7.25;;;4.45;;
35887;SDS011;21990;42.540;23.496;2023-09-19T03:08:50;14.55;;;4.90;;
35887;SDS011;21990;42.540;23.496;2023-09-19T03:11:17;12.32;;;5.18;;
35887;SDS011;21990;42.540;23.496;2023-09-19T03:13:50;11.85;;;4.95;;
35887;SDS011;21990;42.540;23.496;2023-09-19T03:16:17;9.13;;;4.68;;
35887;SDS011;21990;42.540;23.496;2023-09-19T03:18:44;9.88;;;4.68;;
35887;SDS011;21990;42.540;23.496;2023-09-19T03:21:10;7.07;;;4.85;;
35887;SDS011;21990;42.540;23.496;2023-09-19T03:23:35;7.30;;;4.72;;
35887;SDS011;21990;42.540;23.496;2023-09-19T03:26:01;8.80;;;5.03;;
35887;SDS011;21990;42.540;23.496;2023-09-19T03:28:27;9.02;;;4.72;;
35887;SDS011;21990;42.540;23.496;2023-09-19T03:31:03;10.73;;;4.97;;
35887;SDS011;21990;42.540;23.496;2023-09-19T03:33:30;9.68;;;5.03;;
35887;SDS011;21990;42.540;23.496;2023-09-19T03:35:59;8.60;;;4.63;;
35887;SDS011;21990;42.540;23.496;2023-09-19T03:38:26;15.85;;;5.18;;
35887;SDS011;21990;42.540;23.496;2023-09-19T03:40:54;7.50;;;4.65;;
35887;SDS011;21990;42.540;23.496;2023-09-19T03:43:19;15.35;;;5.13;;
35887;SDS011;21990;42.540;23.496;2023-09-19T03:45:45;15.48;;;5.38;;
35887;SDS011;21990;42.540;23.496;2023-09-19T03:48:12;8.90;;;4.78;;
35887;SDS011;21990;42.540;23.496;2023-09-19T03:50:38;8.90;;;4.75;;
35887;SDS011;21990;42.540;23.496;2023-09-19T03:53:04;11.10;;;4.82;;
35887;SDS011;21990;42.540;23.496;2023-09-19T03:55:31;10.75;;;4.72;;
35887;SDS011;21990;42.540;23.496;2023-09-19T03:57:57;13.18;;;5.07;;
35887;SDS011;21990;42.540;23.496;2023-09-19T04:00:23;10.70;;;4.65;;
35887;SDS011;21990;42.540;23.496;2023-09-19T04:02:51;9.35;;;4.55;;
35887;SDS011;21990;42.540;23.496;2023-09-19T04:05:18;14.73;;;4.78;;
35887;SDS011;21990;42.540;23.496;2023-09-19T04:07:44;7.28;;;4.72;;
35887;SDS011;21990;42.540;23.496;2023-09-19T04:10:09;10.43;;;5.13;;
35887;SDS011;21990;42.540;23.496;2023-09-19T04:12:36;13.02;;;5.47;;
35887;SDS011;21990;42.540;23.496;2023-09-19T04:15:04;11.85;;;5.38;;
35887;SDS011;21990;42.540;23.496;2023-09-19T04:17:30;12.18;;;5.68;;
35887;SDS011;21990;42.540;23.496;2023-09-19T04:19:58;11.00;;;5.55;;
35887;SDS011;21990;42.540;23.496;2023-09-19T04:22:24;10.18;;;6.10;;
35887;SDS011;21990;42.540;23.496;2023-09-19T04:24:49;11.43;;;5.15;;
35887;SDS011;21990;42.540;23.496;2023-09-19T04:27:15;12.93;;;5.80;;
35887;SDS011;21990;42.540;23.496;2023-09-19T04:29:41;16.70;;;6.10;;
35887;SDS011;21990;42.540;23.496;2023-09-19T04:32:07;10.27;;;6.03;;
35887;SDS011;21990;42.540;23.496;2023-09-19T04:34:33;14.07;;;6.22;;
35887;SDS011;21990;42.540;23.496;2023-09-19T04:36:59;14.70;;;5.60;;
35887;SDS011;21990;42.540;23.496;2023-09-19T04:39:26;16.25;;;5.78;;
35887;SDS011;21990;42.540;23.496;2023-09-19T04:41:52;13.63;;;5.32;;
35887;SDS011;21990;42.540;23.496;2023-09-19T04:44:18;9.23;;;5.40;;
35887;SDS011;21990;42.540;23.496;2023-09-19T04:46:44;8.40;;;5.50;;
35887;SDS011;21990;42.540;23.496;2023-09-19T04:49:11;17.45;;;6.07;;
35887;SDS011;21990;42.540;23.496;2023-09-19T04:51:37;9.98;;;5.97;;
35887;SDS011;21990;42.540;23.496;2023-09-19T04:54:03;11.35;;;5.68;;
35887;SDS011;21990;42.540;23.496;2023-09-19T04:56:28;11.65;;;5.10;;
35887;SDS011;21990;42.540;23.496;2023-09-19T04:58:54;9.05;;;5.60;;
35887;SDS011;21990;42.540;23.496;2023-09-19T05:01:20;11.35;;;6.00;;
35887;SDS011;21990;42.540;23.496;2023-09-19T05:03:47;14.10;;;5.80;;
35887;SDS011;21990;42.540;23.496;2023-09-19T05:06:17;14.68;;;5.45;;
35887;SDS011;21990;42.540;23.496;2023-09-19T05:08:51;17.93;;;5.77;;
35887;SDS011;21990;42.540;23.496;2023-09-19T05:11:20;17.50;;;5.43;;
35887;SDS011;21990;42.540;23.496;2023-09-19T05:13:47;9.05;;;6.65;;
35887;SDS011;21990;42.540;23.496;2023-09-19T05:16:15;13.45;;;6.35;;
35887;SDS011;21990;42.540;23.496;2023-09-19T05:18:41;13.50;;;6.53;;
35887;SDS011;21990;42.540;23.496;2023-09-19T05:21:07;13.68;;;5.53;;
35887;SDS011;21990;42.540;23.496;2023-09-19T05:23:33;10.88;;;5.55;;
35887;SDS011;21990;42.540;23.496;2023-09-19T05:25:58;7.72;;;5.20;;
35887;SDS011;21990;42.540;23.496;2023-09-19T05:28:25;10.48;;;5.55;;
35887;SDS011;21990;42.540;23.496;2023-09-19T05:30:52;15.40;;;5.97;;
35887;SDS011;21990;42.540;23.496;2023-09-19T05:33:18;9.57;;;5.47;;
35887;SDS011;21990;42.540;23.496;2023-09-19T05:35:44;13.38;;;5.82;;
35887;SDS011;21990;42.540;23.496;2023-09-19T05:38:12;11.80;;;5.03;;
35887;SDS011;21990;42.540;23.496;2023-09-19T05:40:39;7.70;;;4.63;;
35887;SDS011;21990;42.540;23.496;2023-09-19T05:43:07;10.35;;;4.63;;
35887;SDS011;21990;42.540;23.496;2023-09-19T05:45:36;8.85;;;4.60;;
35887;SDS011;21990;42.540;23.496;2023-09-19T05:48:10;10.50;;;4.85;;
35887;SDS011;21990;42.540;23.496;2023-09-19T05:50:38;12.23;;;4.80;;
35887;SDS011;21990;42.540;23.496;2023-09-19T05:53:04;12.20;;;5.25;;
35887;SDS011;21990;42.540;23.496;2023-09-19T05:55:30;10.80;;;4.97;;
35887;SDS011;21990;42.540;23.496;2023-09-19T05:57:55;11.10;;;4.95;;
35887;SDS011;21990;42.540;23.496;2023-09-19T06:00:22;14.88;;;5.82;;
35887;SDS011;21990;42.540;23.496;2023-09-19T06:05:17;9.95;;;5.47;;
35887;SDS011;21990;42.540;23.496;2023-09-19T06:07:43;10.82;;;5.20;;
35887;SDS011;21990;42.540;23.496;2023-09-19T06:10:09;15.70;;;5.22;;
35887;SDS011;21990;42.540;23.496;2023-09-19T06:12:42;8.05;;;4.45;;
35887;SDS011;21990;42.540;23.496;2023-09-19T06:15:11;9.07;;;5.13;;
35887;SDS011;21990;42.540;23.496;2023-09-19T06:17:50;10.20;;;5.30;;
35887;SDS011;21990;42.540;23.496;2023-09-19T06:20:16;7.90;;;5.50;;
35887;SDS011;21990;42.540;23.496;2023-09-19T06:22:44;7.25;;;4.97;;
35887;SDS011;21990;42.540;23.496;2023-09-19T06:25:11;9.13;;;4.93;;
35887;SDS011;21990;42.540;23.496;2023-09-19T06:27:44;8.13;;;5.47;;
35887;SDS011;21990;42.540;23.496;2023-09-19T06:30:17;6.55;;;4.88;;
35887;SDS011;21990;42.540;23.496;2023-09-19T06:32:43;7.50;;;5.03;;
35887;SDS011;21990;42.540;23.496;2023-09-19T06:35:09;8.55;;;5.70;;
35887;SDS011;21990;42.540;23.496;2023-09-19T06:37:39;7.50;;;5.07;;
35887;SDS011;21990;42.540;23.496;2023-09-19T06:40:09;9.93;;;5.43;;
35887;SDS011;21990;42.540;23.496;2023-09-19T06:42:45;15.32;;;5.93;;
35887;SDS011;21990;42.540;23.496;2023-09-19T06:45:13;10.90;;;5.60;;
35887;SDS011;21990;42.540;23.496;2023-09-19T06:47:46;9.77;;;5.10;;
35887;SDS011;21990;42.540;23.496;2023-09-19T06:50:19;18.88;;;5.63;;
35887;SDS011;21990;42.540;23.496;2023-09-19T06:52:47;8.82;;;4.95;;
35887;SDS011;21990;42.540;23.496;2023-09-19T06:55:17;7.82;;;4.95;;
35887;SDS011;21990;42.540;23.496;2023-09-19T06:57:47;8.25;;;4.57;;
35887;SDS011;21990;42.540;23.496;2023-09-19T07:00:13;10.77;;;5.07;;
35887;SDS011;21990;42.540;23.496;2023-09-19T07:05:29;10.13;;;4.45;;
35887;SDS011;21990;42.540;23.496;2023-09-19T07:07:59;11.20;;;4.50;;
35887;SDS011;21990;42.540;23.496;2023-09-19T07:10:26;8.40;;;3.88;;
35887;SDS011;21990;42.540;23.496;2023-09-19T07:12:59;5.65;;;3.80;;
35887;SDS011;21990;42.540;23.496;2023-09-19T07:15:25;7.50;;;4.07;;
35887;SDS011;21990;42.540;23.496;2023-09-19T07:17:51;7.18;;;3.85;;
35887;SDS011;21990;42.540;23.496;2023-09-19T07:20:19;14.88;;;3.80;;
35887;SDS011;21990;42.540;23.496;2023-09-19T07:22:45;8.73;;;3.60;;
35887;SDS011;21990;42.540;23.496;2023-09-19T07:25:10;9.25;;;4.40;;
35887;SDS011;21990;42.540;23.496;2023-09-19T07:27:36;6.10;;;3.60;;
35887;SDS011;21990;42.540;23.496;2023-09-19T07:30:01;8.48;;;3.22;;
35887;SDS011;21990;42.540;23.496;2023-09-19T07:32:27;6.70;;;3.70;;
35887;SDS011;21990;42.540;23.496;2023-09-19T07:34:52;6.65;;;3.38;;
35887;SDS011;21990;42.540;23.496;2023-09-19T07:37:20;6.97;;;3.08;;
35887;SDS011;21990;42.540;23.496;2023-09-19T07:39:46;5.22;;;3.53;;
35887;SDS011;21990;42.540;23.496;2023-09-19T07:42:12;7.15;;;3.60;;
35887;SDS011;21990;42.540;23.496;2023-09-19T07:44:43;28.98;;;4.00;;
35887;SDS011;21990;42.540;23.496;2023-09-19T07:47:13;10.13;;;3.72;;
35887;SDS011;21990;42.540;23.496;2023-09-19T07:49:39;11.40;;;3.00;;
35887;SDS011;21990;42.540;23.496;2023-09-19T07:52:07;4.32;;;2.50;;
35887;SDS011;21990;42.540;23.496;2023-09-19T07:54:33;9.77;;;3.85;;
35887;SDS011;21990;42.540;23.496;2023-09-19T07:57:03;5.70;;;3.35;;
35887;SDS011;21990;42.540;23.496;2023-09-19T07:59:29;5.88;;;3.25;;
35887;SDS011;21990;42.540;23.496;2023-09-19T08:01:55;9.88;;;3.47;;
35887;SDS011;21990;42.540;23.496;2023-09-19T08:04:20;13.05;;;3.45;;
35887;SDS011;21990;42.540;23.496;2023-09-19T08:06:46;5.13;;;3.10;;
35887;SDS011;21990;42.540;23.496;2023-09-19T08:09:11;8.73;;;3.90;;
35887;SDS011;21990;42.540;23.496;2023-09-19T08:11:41;6.40;;;3.50;;
35887;SDS011;21990;42.540;23.496;2023-09-19T08:14:06;5.68;;;3.33;;
35887;SDS011;21990;42.540;23.496;2023-09-19T08:16:33;5.28;;;3.10;;
35887;SDS011;21990;42.540;23.496;2023-09-19T08:18:59;8.60;;;3.95;;
35887;SDS011;21990;42.540;23.496;2023-09-19T08:21:25;6.93;;;3.40;;
35887;SDS011;21990;42.540;23.496;2023-09-19T08:23:52;9.10;;;3.55;;
35887;SDS011;21990;42.540;23.496;2023-09-19T08:26:18;6.78;;;3.75;;
35887;SDS011;21990;42.540;23.496;2023-09-19T08:28:44;10.95;;;3.53;;
35887;SDS011;21990;42.540;23.496;2023-09-19T08:31:10;5.78;;;3.35;;
35887;SDS011;21990;42.540;23.496;2023-09-19T08:33:36;6.10;;;3.60;;
35887;SDS011;21990;42.540;23.496;2023-09-19T08:36:02;10.95;;;3.78;;
35887;SDS011;21990;42.540;23.496;2023-09-19T08:38:34;10.77;;;3.63;;
35887;SDS011;21990;42.540;23.496;2023-09-19T08:41:04;11.90;;;3.97;;
35887;SDS011;21990;42.540;23.496;2023-09-19T08:43:31;7.93;;;3.40;;
35887;SDS011;21990;42.540;23.496;2023-09-19T08:49:08;6.68;;;3.75;;
35887;SDS011;21990;42.540;23.496;2023-09-19T08:51:43;4.75;;;2.90;;
35887;SDS011;21990;42.540;23.496;2023-09-19T08:54:28;9.20;;;4.25;;
35887;SDS011;21990;42.540;23.496;2023-09-19T08:57:06;7.28;;;3.90;;
35887;SDS011;21990;42.540;23.496;2023-09-19T08:59:39;7.50;;;3.33;;
35887;SDS011;21990;42.540;23.496;2023-09-19T09:02:11;6.45;;;3.55;;
35887;SDS011;21990;42.540;23.496;2023-09-19T09:04:41;5.30;;;3.47;;
35887;SDS011;21990;42.540;23.496;2023-09-19T09:07:11;9.13;;;3.63;;
35887;SDS011;21990;42.540;23.496;2023-09-19T09:09:44;8.15;;;3.55;;
35887;SDS011;21990;42.540;23.496;2023-09-19T09:12:14;8.18;;;3.65;;
35887;SDS011;21990;42.540;23.496;2023-09-19T09:14:43;9.35;;;3.70;;
35887;SDS011;21990;42.540;23.496;2023-09-19T09:17:10;5.88;;;3.53;;
35887;SDS011;21990;42.540;23.496;2023-09-19T09:19:37;5.13;;;3.35;;
35887;SDS011;21990;42.540;23.496;2023-09-19T09:22:09;8.88;;;3.97;;
35887;SDS011;21990;42.540;23.496;2023-09-19T09:24:36;8.95;;;3.40;;
35887;SDS011;21990;42.540;23.496;2023-09-19T09:27:15;8.30;;;3.40;;
35887;SDS011;21990;42.540;23.496;2023-09-19T09:29:45;10.77;;;3.47;;
35887;SDS011;21990;42.540;23.496;2023-09-19T09:32:23;7.28;;;3.75;;
35887;SDS011;21990;42.540;23.496;2023-09-19T09:34:53;9.73;;;3.30;;
35887;SDS011;21990;42.540;23.496;2023-09-19T09:37:23;7.18;;;3.38;;
35887;SDS011;21990;42.540;23.496;2023-09-19T09:39:55;7.03;;;3.60;;
35887;SDS011;21990;42.540;23.496;2023-09-19T09:42:44;8.05;;;3.67;;
35887;SDS011;21990;42.540;23.496;2023-09-19T09:47:53;6.70;;;3.25;;
35887;SDS011;21990;42.540;23.496;2023-09-19T09:50:29;9.23;;;3.65;;
35887;SDS011;21990;42.540;23.496;2023-09-19T09:53:22;7.97;;;3.72;;
35887;SDS011;21990;42.540;23.496;2023-09-19T09:56:08;9.18;;;3.70;;
35887;SDS011;21990;42.540;23.496;2023-09-19T09:58:38;8.93;;;3.67;;
35887;SDS011;21990;42.540;23.496;2023-09-19T10:01:16;5.82;;;3.70;;
35887;SDS011;21990;42.540;23.496;2023-09-19T10:03:43;8.63;;;3.47;;
35887;SDS011;21990;42.540;23.496;2023-09-19T10:06:17;15.27;;;3.97;;
35887;SDS011;21990;42.540;23.496;2023-09-19T10:09:04;6.55;;;3.30;;
35887;SDS011;21990;42.540;23.496;2023-09-19T10:11:34;8.43;;;3.20;;
35887;SDS011;21990;42.540;23.496;2023-09-19T10:14:24;7.03;;;3.70;;
35887;SDS011;21990;42.540;23.496;2023-09-19T10:16:56;14.70;;;4.07;;
35887;SDS011;21990;42.540;23.496;2023-09-19T10:19:33;8.02;;;3.40;;
35887;SDS011;21990;42.540;23.496;2023-09-19T10:22:02;6.78;;;3.45;;
35887;SDS011;21990;42.540;23.496;2023-09-19T10:24:30;14.55;;;3.53;;
35887;SDS011;21990;42.540;23.496;2023-09-19T10:27:01;11.15;;;3.60;;
35887;SDS011;21990;42.540;23.496;2023-09-19T10:29:29;10.00;;;3.63;;
35887;SDS011;21990;42.540;23.496;2023-09-19T10:32:01;5.65;;;3.42;;
35887;SDS011;21990;42.540;23.496;2023-09-19T10:34:32;11.25;;;3.72;;
35887;SDS011;21990;42.540;23.496;2023-09-19T10:37:00;8.05;;;3.55;;
35887;SDS011;21990;42.540;23.496;2023-09-19T10:39:31;6.43;;;3.47;;
35887;SDS011;21990;42.540;23.496;2023-09-19T10:42:01;10.27;;;3.45;;
35887;SDS011;21990;42.540;23.496;2023-09-19T10:44:32;12.30;;;3.90;;
35887;SDS011;21990;42.540;23.496;2023-09-19T10:46:58;5.72;;;3.58;;
35887;SDS011;21990;42.540;23.496;2023-09-19T10:49:24;12.88;;;3.90;;
35887;SDS011;21990;42.540;23.496;2023-09-19T10:51:54;5.65;;;3.53;;
35887;SDS011;21990;42.540;23.496;2023-09-19T10:54:26;6.32;;;3.33;;
35887;SDS011;21990;42.540;23.496;2023-09-19T10:56:57;11.77;;;3.50;;
35887;SDS011;21990;42.540;23.496;2023-09-19T10:59:24;6.20;;;3.97;;
35887;SDS011;21990;42.540;23.496;2023-09-19T11:01:54;5.55;;;3.35;;
35887;SDS011;21990;42.540;23.496;2023-09-19T11:04:24;13.73;;;3.97;;
35887;SDS011;21990;42.540;23.496;2023-09-19T11:09:52;12.88;;;3.78;;
35887;SDS011;21990;42.540;23.496;2023-09-19T11:14:54;8.93;;;3.40;;
35887;SDS011;21990;42.540;23.496;2023-09-19T11:30:40;9.85;;;3.63;;
35887;SDS011;21990;42.540;23.496;2023-09-19T11:46:34;6.20;;;3.17;;
35887;SDS011;21990;42.540;23.496;2023-09-19T11:49:17;7.72;;;3.40;;
35887;SDS011;21990;42.540;23.496;2023-09-19T11:51:50;11.18;;;3.75;;
35887;SDS011;21990;42.540;23.496;2023-09-19T11:54:19;5.47;;;3.25;;
35887;SDS011;21990;42.540;23.496;2023-09-19T11:56:50;5.30;;;3.70;;
35887;SDS011;21990;42.540;23.496;2023-09-19T11:59:23;8.02;;;3.28;;
35887;SDS011;21990;42.540;23.496;2023-09-19T12:01:57;11.02;;;3.13;;
35887;SDS011;21990;42.540;23.496;2023-09-19T12:04:35;6.05;;;3.90;;
35887;SDS011;21990;42.540;23.496;2023-09-19T12:07:10;11.57;;;3.55;;
35887;SDS011;21990;42.540;23.496;2023-09-19T12:09:40;6.55;;;3.33;;
35887;SDS011;21990;42.540;23.496;2023-09-19T12:12:21;6.90;;;3.20;;
35887;SDS011;21990;42.540;23.496;2023-09-19T12:14:49;17.85;;;3.60;;
35887;SDS011;21990;42.540;23.496;2023-09-19T12:17:18;9.98;;;3.80;;
35887;SDS011;21990;42.540;23.496;2023-09-19T12:19:55;5.95;;;3.55;;
35887;SDS011;21990;42.540;23.496;2023-09-19T12:22:21;7.00;;;3.80;;
35887;SDS011;21990;42.540;23.496;2023-09-19T12:24:48;14.07;;;4.22;;
35887;SDS011;21990;42.540;23.496;2023-09-19T12:27:14;8.55;;;3.58;;
35887;SDS011;21990;42.540;23.496;2023-09-19T12:32:10;9.02;;;3.97;;
35887;SDS011;21990;42.540;23.496;2023-09-19T12:34:36;9.07;;;3.47;;
35887;SDS011;21990;42.540;23.496;2023-09-19T12:39:38;9.77;;;3.67;;
35887;SDS011;21990;42.540;23.496;2023-09-19T12:42:06;7.30;;;3.75;;
35887;SDS011;21990;42.540;23.496;2023-09-19T12:44:40;5.95;;;3.72;;
35887;SDS011;21990;42.540;23.496;2023-09-19T12:47:14;8.30;;;3.45;;
35887;SDS011;21990;42.540;23.496;2023-09-19T12:52:44;5.72;;;3.50;;
35887;SDS011;21990;42.540;23.496;2023-09-19T12:57:59;12.02;;;3.55;;
35887;SDS011;21990;42.540;23.496;2023-09-19T13:00:46;10.93;;;3.60;;
35887;SDS011;21990;42.540;23.496;2023-09-19T13:03:26;8.38;;;3.20;;
35887;SDS011;21990;42.540;23.496;2023-09-19T13:05:58;5.15;;;3.40;;
35887;SDS011;21990;42.540;23.496;2023-09-19T13:11:14;6.20;;;3.60;;
35887;SDS011;21990;42.540;23.496;2023-09-19T13:13:47;9.70;;;3.50;;
35887;SDS011;21990;42.540;23.496;2023-09-19T13:16:33;6.15;;;3.67;;
35887;SDS011;21990;42.540;23.496;2023-09-19T13:18:58;7.13;;;3.63;;
35887;SDS011;21990;42.540;23.496;2023-09-19T13:21:28;5.63;;;3.47;;
35887;SDS011;21990;42.540;23.496;2023-09-19T13:24:23;16.02;;;4.05;;
35887;SDS011;21990;42.540;23.496;2023-09-19T13:26:54;7.78;;;3.63;;
35887;SDS011;21990;42.540;23.496;2023-09-19T13:29:20;9.95;;;3.30;;
35887;SDS011;21990;42.540;23.496;2023-09-19T13:31:48;15.77;;;3.80;;
35887;SDS011;21990;42.540;23.496;2023-09-19T13:34:15;11.10;;;3.70;;
35887;SDS011;21990;42.540;23.496;2023-09-19T13:36:42;8.88;;;3.58;;
35887;SDS011;21990;42.540;23.496;2023-09-19T13:39:08;8.52;;;3.70;;
35887;SDS011;21990;42.540;23.496;2023-09-19T13:41:34;8.05;;;4.20;;
35887;SDS011;21990;42.540;23.496;2023-09-19T13:44:04;12.70;;;4.30;;
35887;SDS011;21990;42.540;23.496;2023-09-19T13:46:30;6.80;;;3.72;;
35887;SDS011;21990;42.540;23.496;2023-09-19T13:49:00;15.48;;;4.45;;
35887;SDS011;21990;42.540;23.496;2023-09-19T13:51:29;14.35;;;3.75;;
35887;SDS011;21990;42.540;23.496;2023-09-19T13:53:56;6.28;;;3.75;;
35887;SDS011;21990;42.540;23.496;2023-09-19T13:56:22;9.25;;;3.90;;
35887;SDS011;21990;42.540;23.496;2023-09-19T13:58:47;11.95;;;4.38;;
35887;SDS011;21990;42.540;23.496;2023-09-19T14:01:13;7.68;;;4.40;;
35887;SDS011;21990;42.540;23.496;2023-09-19T14:03:39;11.05;;;4.32;;
35887;SDS011;21990;42.540;23.496;2023-09-19T14:06:05;5.50;;;4.05;;
35887;SDS011;21990;42.540;23.496;2023-09-19T14:08:31;8.25;;;3.97;;
35887;SDS011;21990;42.540;23.496;2023-09-19T14:10:59;17.15;;;4.15;;
35887;SDS011;21990;42.540;23.496;2023-09-19T14:13:30;6.90;;;3.85;;
35887;SDS011;21990;42.540;23.496;2023-09-19T14:15:56;15.80;;;4.00;;
35887;SDS011;21990;42.540;23.496;2023-09-19T14:18:21;10.48;;;4.30;;
35887;SDS011;21990;42.540;23.496;2023-09-19T14:20:47;10.60;;;4.28;;
35887;SDS011;21990;42.540;23.496;2023-09-19T14:23:12;15.25;;;4.30;;
35887;SDS011;21990;42.540;23.496;2023-09-19T14:25:38;6.80;;;3.92;;
35887;SDS011;21990;42.540;23.496;2023-09-19T14:28:04;9.52;;;4.20;;
35887;SDS011;21990;42.540;23.496;2023-09-19T14:30:32;25.20;;;4.40;;
35887;SDS011;21990;42.540;23.496;2023-09-19T14:32:57;12.43;;;4.05;;
35887;SDS011;21990;42.540;23.496;2023-09-19T14:35:23;8.95;;;4.15;;
35887;SDS011;21990;42.540;23.496;2023-09-19T14:37:49;12.05;;;4.90;;
35887;SDS011;21990;42.540;23.496;2023-09-19T14:40:15;9.80;;;4.40;;
35887;SDS011;21990;42.540;23.496;2023-09-19T14:42:43;13.15;;;4.57;;
35887;SDS011;21990;42.540;23.496;2023-09-19T14:45:10;37.17;;;5.03;;
35887;SDS011;21990;42.540;23.496;2023-09-19T14:47:36;13.52;;;4.53;;
35887;SDS011;21990;42.540;23.496;2023-09-19T14:50:03;8.07;;;4.60;;
35887;SDS011;21990;42.540;23.496;2023-09-19T14:52:34;12.50;;;4.57;;
35887;SDS011;21990;42.540;23.496;2023-09-19T14:55:01;7.43;;;4.60;;
35887;SDS011;21990;42.540;23.496;2023-09-19T14:57:27;7.78;;;4.40;;
35887;SDS011;21990;42.540;23.496;2023-09-19T14:59:53;8.77;;;4.22;;
35887;SDS011;21990;42.540;23.496;2023-09-19T15:02:19;9.93;;;4.60;;
35887;SDS011;21990;42.540;23.496;2023-09-19T15:04:45;9.80;;;4.43;;
35887;SDS011;21990;42.540;23.496;2023-09-19T15:07:15;8.27;;;4.55;;
35887;SDS011;21990;42.540;23.496;2023-09-19T15:09:41;14.20;;;5.10;;
35887;SDS011;21990;42.540;23.496;2023-09-19T15:12:07;13.68;;;5.10;;
35887;SDS011;21990;42.540;23.496;2023-09-19T15:14:32;11.50;;;4.70;;
35887;SDS011;21990;42.540;23.496;2023-09-19T15:16:58;7.68;;;4.90;;
35887;SDS011;21990;42.540;23.496;2023-09-19T15:19:23;9.88;;;4.78;;
35887;SDS011;21990;42.540;23.496;2023-09-19T15:21:49;19.38;;;5.00;;
35887;SDS011;21990;42.540;23.496;2023-09-19T15:24:14;9.13;;;5.03;;
35887;SDS011;21990;42.540;23.496;2023-09-19T15:26:43;10.35;;;4.70;;
35887;SDS011;21990;42.540;23.496;2023-09-19T15:29:10;11.25;;;4.80;;
35887;SDS011;21990;42.540;23.496;2023-09-19T15:31:35;11.50;;;5.50;;
35887;SDS011;21990;42.540;23.496;2023-09-19T15:34:04;13.82;;;5.88;;
35887;SDS011;21990;42.540;23.496;2023-09-19T15:36:34;9.23;;;5.00;;
35887;SDS011;21990;42.540;23.496;2023-09-19T15:39:03;9.98;;;5.13;;
35887;SDS011;21990;42.540;23.496;2023-09-19T15:41:31;13.98;;;5.15;;
35887;SDS011;21990;42.540;23.496;2023-09-19T15:43:59;11.48;;;5.15;;
35887;SDS011;21990;42.540;23.496;2023-09-19T15:46:29;15.40;;;5.20;;
35887;SDS011;21990;42.540;23.496;2023-09-19T15:48:59;16.80;;;5.13;;
35887;SDS011;21990;42.540;23.496;2023-09-19T15:51:25;7.55;;;4.85;;
35887;SDS011;21990;42.540;23.496;2023-09-19T15:53:52;17.40;;;4.70;;
35887;SDS011;21990;42.540;23.496;2023-09-19T15:56:21;9.02;;;4.68;;
35887;SDS011;21990;42.540;23.496;2023-09-19T15:58:49;13.82;;;5.60;;